createdAt,value
2023-01-21T00:01:09.008Z,1.80
2023-01-21T00:03:36.828Z,1.80
2023-01-21T00:06:06.647Z,1.70
2023-01-21T00:08:34.420Z,1.50
2023-01-21T00:11:06.337Z,1.70
2023-01-21T00:13:35.471Z,1.70
2023-01-21T00:16:03.350Z,1.50
2023-01-21T00:18:31.481Z,1.60
2023-01-21T00:20:59.239Z,1.80
2023-01-21T00:23:28.584Z,1.70
2023-01-21T00:25:59.960Z,1.60
2023-01-21T00:28:29.875Z,1.80
2023-01-21T00:30:59.083Z,1.60
2023-01-21T00:33:27.141Z,1.70
2023-01-21T00:36:01.935Z,1.80
2023-01-21T00:38:31.551Z,1.60
2023-01-21T00:41:03.062Z,1.80
2023-01-21T00:43:31.157Z,1.60
2023-01-21T00:45:59.272Z,1.80
2023-01-21T00:48:28.248Z,1.70
2023-01-21T00:50:59.078Z,1.70
2023-01-21T00:53:27.382Z,1.50
2023-01-21T00:55:59.829Z,1.80
2023-01-21T00:58:27.993Z,1.90
2023-01-21T01:01:02.496Z,1.90
2023-01-21T01:03:30.374Z,1.90
2023-01-21T01:06:02.952Z,1.80
2023-01-21T01:08:30.665Z,2.00
2023-01-21T01:11:00.053Z,2.10
2023-01-21T01:13:28.498Z,2.00
2023-01-21T01:15:57.915Z,1.90
2023-01-21T01:18:26.984Z,2.10
2023-01-21T01:20:54.951Z,1.80
2023-01-21T01:23:22.808Z,2.00
2023-01-21T01:25:56.185Z,1.80
2023-01-21T01:28:25.521Z,1.90
2023-01-21T01:30:53.410Z,1.90
2023-01-21T01:33:21.630Z,1.90
2023-01-21T01:35:50.170Z,2.00
2023-01-21T01:38:20.935Z,2.10
2023-01-21T01:40:50.323Z,1.90
2023-01-21T01:43:20.211Z,2.00
2023-01-21T01:45:50.291Z,1.90
2023-01-21T01:48:21.533Z,2.10
2023-01-21T01:50:50.289Z,2.00
2023-01-21T01:53:19.788Z,2.00
2023-01-21T01:55:49.709Z,1.90
2023-01-21T01:58:20.113Z,1.80
2023-01-21T02:00:49.581Z,1.80
2023-01-21T02:03:36.526Z,2.10
2023-01-21T02:06:04.744Z,2.00
2023-01-21T02:08:36.002Z,1.90
2023-01-21T02:11:07.330Z,1.90
2023-01-21T02:13:35.097Z,1.90
2023-01-21T02:16:19.679Z,1.80
2023-01-21T02:18:55.873Z,2.00
2023-01-21T02:22:02.946Z,1.90
2023-01-21T02:25:09.379Z,1.90
2023-01-21T02:27:56.584Z,1.90
2023-01-21T02:30:48.131Z,1.90
2023-01-21T02:33:51.215Z,1.90
2023-01-21T02:36:31.354Z,1.90
2023-01-21T02:39:07.616Z,1.70
2023-01-21T02:41:40.821Z,1.80
2023-01-21T02:44:14.112Z,1.80
2023-01-21T02:46:45.900Z,1.70
2023-01-21T02:49:22.239Z,1.60
2023-01-21T02:51:50.585Z,1.70
2023-01-21T02:54:51.716Z,1.60
2023-01-21T02:57:42.446Z,1.70
2023-01-21T03:00:15.685Z,1.60
2023-01-21T03:03:26.665Z,2.00
2023-01-21T03:06:19.269Z,1.60
2023-01-21T03:08:53.959Z,2.00
2023-01-21T03:11:23.160Z,1.80
2023-01-21T03:14:12.138Z,1.70
2023-01-21T03:16:58.398Z,1.50
2023-01-21T03:19:33.289Z,1.70
2023-01-21T03:22:07.877Z,1.70
2023-01-21T03:24:37.145Z,1.70
2023-01-21T03:27:09.866Z,1.70
2023-01-21T03:29:39.956Z,1.40
2023-01-21T03:32:11.868Z,1.50
2023-01-21T03:34:44.720Z,1.70
2023-01-21T03:37:18.974Z,1.50
2023-01-21T03:39:55.903Z,1.50
2023-01-21T03:42:24.037Z,1.50
2023-01-21T03:44:51.842Z,1.50
2023-01-21T03:47:25.302Z,1.60
2023-01-21T03:49:58.032Z,1.50
2023-01-21T03:52:28.411Z,1.70
2023-01-21T03:54:56.302Z,1.70
2023-01-21T03:57:24.075Z,1.80
2023-01-21T03:59:51.905Z,1.70
2023-01-21T04:02:20.366Z,1.50
2023-01-21T04:04:48.475Z,1.60
2023-01-21T04:07:17.022Z,1.70
2023-01-21T04:09:46.691Z,1.40
2023-01-21T04:12:14.410Z,1.60
2023-01-21T04:14:42.231Z,1.60
2023-01-21T04:17:10.240Z,1.20
2023-01-21T04:19:38.023Z,1.30
2023-01-21T04:22:05.849Z,1.40
2023-01-21T04:24:34.764Z,1.20
2023-01-21T04:27:03.958Z,1.30
2023-01-21T04:29:31.635Z,1.50
2023-01-21T04:31:59.443Z,1.50
2023-01-21T04:34:27.219Z,1.30
2023-01-21T04:36:54.941Z,1.30
2023-01-21T04:39:22.718Z,1.40
2023-01-21T04:41:50.466Z,1.60
2023-01-21T04:44:19.568Z,1.60
2023-01-21T04:46:47.302Z,1.60
2023-01-21T04:49:14.993Z,1.40
2023-01-21T04:51:42.722Z,1.20
2023-01-21T04:54:11.142Z,1.20
2023-01-21T04:56:39.124Z,1.50
2023-01-21T04:59:06.871Z,1.30
2023-01-21T05:01:35.914Z,1.10
2023-01-21T05:04:03.681Z,0.90
2023-01-21T05:06:31.475Z,1.00
2023-01-21T05:08:59.306Z,1.10
2023-01-21T05:11:27.096Z,1.00
2023-01-21T05:13:54.831Z,0.90
2023-01-21T05:16:23.088Z,0.90
2023-01-21T05:18:52.281Z,0.80
2023-01-21T05:21:20.004Z,0.80
2023-01-21T05:23:47.696Z,1.00
2023-01-21T05:26:15.429Z,0.50
2023-01-21T05:28:43.118Z,0.60
2023-01-21T05:31:10.971Z,0.40
2023-01-21T05:33:38.737Z,0.30
2023-01-21T05:36:10.049Z,0.30
2023-01-21T05:38:37.885Z,0.30
2023-01-21T05:41:06.004Z,0.20
2023-01-21T05:43:33.932Z,0.30
2023-01-21T05:46:01.902Z,0.20
2023-01-21T05:48:30.162Z,0.50
2023-01-21T05:50:58.545Z,0.10
2023-01-21T05:53:27.964Z,0.00
2023-01-21T05:55:56.472Z,-0.50
2023-01-21T05:58:25.605Z,0.30
2023-01-21T06:00:54.095Z,0.30
2023-01-21T06:03:22.053Z,0.20
2023-01-21T06:05:50.725Z,0.40
2023-01-21T06:08:19.135Z,0.30
2023-01-21T06:10:48.203Z,0.10
2023-01-21T06:13:17.035Z,0.30
2023-01-21T06:15:44.817Z,0.10
2023-01-21T06:18:12.657Z,0.20
2023-01-21T06:20:40.388Z,0.10
2023-01-21T06:23:08.289Z,0.10
2023-01-21T06:25:36.087Z,0.30
2023-01-21T06:28:05.207Z,-0.10
2023-01-21T06:30:32.995Z,-0.20
2023-01-21T06:33:00.667Z,-0.10
2023-01-21T06:35:28.391Z,0.10
2023-01-21T06:37:56.128Z,0.00
2023-01-21T06:40:23.848Z,-0.10
2023-01-21T06:42:51.539Z,-0.10
2023-01-21T06:45:20.832Z,-0.20
2023-01-21T06:47:48.567Z,-0.10
2023-01-21T06:50:18.348Z,-0.20
2023-01-21T06:52:47.975Z,-0.20
2023-01-21T06:55:16.719Z,-0.10
2023-01-21T06:57:45.400Z,-0.30
2023-01-21T07:00:14.441Z,-0.30
2023-01-21T07:02:43.520Z,-0.10
2023-01-21T07:05:11.391Z,-0.30
2023-01-21T07:07:39.076Z,-0.30
2023-01-21T07:10:08.977Z,-0.50
2023-01-21T07:12:36.755Z,-0.70
2023-01-21T07:15:05.366Z,-0.60
2023-01-21T07:17:33.139Z,-0.50
2023-01-21T07:20:02.331Z,-0.40
2023-01-21T07:22:30.034Z,-0.40
2023-01-21T07:24:57.751Z,-0.40
2023-01-21T07:27:25.560Z,-0.30
2023-01-21T07:29:53.469Z,-0.40
2023-01-21T07:32:21.206Z,-0.20
2023-01-21T07:34:49.016Z,-0.20
2023-01-21T07:37:18.052Z,-0.30
2023-01-21T07:39:45.791Z,-0.30
2023-01-21T07:42:13.489Z,-0.40
2023-01-21T07:44:41.202Z,-0.20
2023-01-21T07:47:10.345Z,-0.20
2023-01-21T07:49:38.276Z,-0.20
2023-01-21T07:52:05.987Z,-0.30
2023-01-21T07:54:35.023Z,-0.30
2023-01-21T07:57:02.903Z,-0.20
2023-01-21T07:59:30.606Z,-0.30
2023-01-21T08:01:58.520Z,-0.50
2023-01-21T08:04:26.513Z,-0.50
2023-01-21T08:06:56.898Z,-0.10
2023-01-21T08:09:24.990Z,-0.20
2023-01-21T08:11:54.066Z,0.00
2023-01-21T08:14:21.744Z,0.10
2023-01-21T08:16:49.442Z,0.10
2023-01-21T08:19:17.162Z,0.30
2023-01-21T08:21:45.160Z,0.00
2023-01-21T08:24:13.122Z,0.20
2023-01-21T08:26:40.875Z,0.30
2023-01-21T08:29:10.193Z,0.20
2023-01-21T08:31:38.003Z,0.60
2023-01-21T08:34:05.760Z,0.70
2023-01-21T08:36:33.506Z,0.70
2023-01-21T08:39:01.816Z,1.30
2023-01-21T08:41:29.550Z,1.40
2023-01-21T08:43:57.261Z,1.90
2023-01-21T08:46:26.507Z,2.50
2023-01-21T08:48:54.201Z,2.60
2023-01-21T08:51:22.013Z,3.10
2023-01-21T08:53:50.629Z,3.00
2023-01-21T08:56:19.108Z,3.30
2023-01-21T08:58:46.807Z,3.40
2023-01-21T09:01:17.408Z,3.50
2023-01-21T09:03:48.817Z,3.80
2023-01-21T09:06:17.303Z,3.60
2023-01-21T09:08:46.987Z,3.40
2023-01-21T09:11:17.154Z,3.10
2023-01-21T09:13:47.012Z,2.80
2023-01-21T09:16:18.819Z,2.50
2023-01-21T09:18:50.254Z,2.50
2023-01-21T09:21:21.137Z,2.10
2023-01-21T09:23:50.665Z,2.00
2023-01-21T09:26:21.160Z,1.90
2023-01-21T09:28:55.417Z,1.90
2023-01-21T09:31:26.229Z,2.00
2023-01-21T09:34:00.245Z,1.90
2023-01-21T09:36:31.356Z,1.70
2023-01-21T09:39:02.260Z,1.70
2023-01-21T09:41:37.233Z,1.50
2023-01-21T09:44:17.704Z,1.70
2023-01-21T09:46:52.443Z,1.90
2023-01-21T09:49:27.459Z,2.30
2023-01-21T09:52:08.431Z,2.10
2023-01-21T09:54:40.817Z,2.20
2023-01-21T09:57:42.440Z,2.00
2023-01-21T10:00:30.580Z,2.00
2023-01-21T10:03:04.400Z,2.20
2023-01-21T10:05:52.900Z,2.10
2023-01-21T10:08:31.520Z,2.30
2023-01-21T10:11:13.765Z,2.10
2023-01-21T10:13:52.732Z,2.20
2023-01-21T10:16:28.596Z,2.00
2023-01-21T10:18:58.042Z,2.00
2023-01-21T10:21:33.825Z,2.10
2023-01-21T10:24:05.539Z,2.20
2023-01-21T10:26:35.750Z,2.20
2023-01-21T10:29:04.094Z,2.30
2023-01-21T10:31:38.909Z,2.10
2023-01-21T10:34:12.921Z,2.20
2023-01-21T10:37:03.626Z,2.40
2023-01-21T10:39:40.491Z,2.20
2023-01-21T10:42:34.199Z,2.40
2023-01-21T10:45:08.141Z,2.30
2023-01-21T10:47:43.074Z,2.60
2023-01-21T10:50:25.589Z,2.80
2023-01-21T10:53:00.434Z,2.70
2023-01-21T10:55:39.649Z,2.50
2023-01-21T10:58:15.955Z,2.60
2023-01-21T11:00:47.244Z,2.80
2023-01-21T11:03:17.732Z,2.70
2023-01-21T11:05:47.533Z,2.50
2023-01-21T11:08:22.102Z,3.00
2023-01-21T11:10:55.082Z,2.80
2023-01-21T11:13:23.299Z,3.40
2023-01-21T11:15:53.814Z,2.90
2023-01-21T11:18:31.149Z,3.10
2023-01-21T11:21:00.686Z,3.30
2023-01-21T11:23:31.514Z,3.00
2023-01-21T11:26:03.546Z,3.70
2023-01-21T11:28:31.757Z,3.60
2023-01-21T11:31:07.950Z,3.40
2023-01-21T11:33:36.237Z,3.50
2023-01-21T11:36:16.017Z,3.20
2023-01-21T11:38:47.169Z,2.70
2023-01-21T11:41:21.788Z,2.40
2023-01-21T11:43:52.125Z,2.30
2023-01-21T11:46:30.009Z,2.60
2023-01-21T11:49:18.525Z,2.50
2023-01-21T11:51:47.342Z,2.60
2023-01-21T11:54:18.928Z,2.30
2023-01-21T11:56:58.012Z,2.70
2023-01-21T11:59:32.890Z,2.50
2023-01-21T12:02:08.980Z,2.20
2023-01-21T12:04:37.385Z,2.30
2023-01-21T12:07:06.342Z,2.10
2023-01-21T12:09:35.530Z,2.10
2023-01-21T12:12:19.395Z,2.20
2023-01-21T12:14:53.329Z,2.20
2023-01-21T12:17:34.912Z,1.90
2023-01-21T12:20:17.401Z,2.10
2023-01-21T12:23:13.523Z,2.20
2023-01-21T12:25:49.197Z,2.00
2023-01-21T12:28:41.771Z,2.30
2023-01-21T12:31:23.533Z,2.20
2023-01-21T12:33:56.123Z,2.30
2023-01-21T12:36:30.471Z,2.30
2023-01-21T12:39:14.073Z,2.40
2023-01-21T12:41:47.898Z,2.30
2023-01-21T12:44:27.970Z,2.30
2023-01-21T12:46:59.724Z,2.40
2023-01-21T12:49:30.389Z,2.50
2023-01-21T12:52:04.200Z,2.60
2023-01-21T12:54:40.991Z,2.50
2023-01-21T12:57:19.114Z,2.30
2023-01-21T12:59:49.924Z,2.50
2023-01-21T13:02:25.433Z,2.70
2023-01-21T13:04:57.508Z,2.70
2023-01-21T13:07:32.885Z,2.60
2023-01-21T13:10:05.434Z,2.70
2023-01-21T13:12:36.250Z,2.70
2023-01-21T13:15:13.590Z,2.70
2023-01-21T13:17:44.900Z,2.80
2023-01-21T13:20:17.427Z,2.80
2023-01-21T13:22:53.208Z,2.70
2023-01-21T13:25:29.351Z,3.00
2023-01-21T13:28:06.459Z,2.70
2023-01-21T13:30:42.121Z,2.60
2023-01-21T13:33:25.724Z,2.70
2023-01-21T13:36:05.686Z,2.70
2023-01-21T13:38:40.473Z,2.40
2023-01-21T13:41:24.980Z,2.60
2023-01-21T13:44:11.745Z,2.70
2023-01-21T13:46:52.715Z,2.70
2023-01-21T13:49:48.928Z,2.70
2023-01-21T13:52:22.404Z,2.70
2023-01-21T13:55:20.880Z,2.70
2023-01-21T13:58:02.831Z,2.60
2023-01-21T14:00:36.453Z,2.60
2023-01-21T14:03:15.898Z,2.40
2023-01-21T14:05:51.675Z,2.60
2023-01-21T14:08:27.183Z,2.50
2023-01-21T14:10:59.688Z,2.40
2023-01-21T14:13:51.964Z,2.40
2023-01-21T14:16:43.072Z,2.50
2023-01-21T14:19:29.504Z,2.50
2023-01-21T14:22:12.283Z,2.40
2023-01-21T14:25:03.825Z,2.40
2023-01-21T14:27:41.504Z,2.40
2023-01-21T14:30:15.261Z,2.50
2023-01-21T14:32:48.295Z,2.30
2023-01-21T14:35:23.573Z,2.40
2023-01-21T14:37:57.895Z,2.40
2023-01-21T14:40:29.933Z,2.40
2023-01-21T14:42:57.759Z,2.10
2023-01-21T14:45:52.841Z,2.20
2023-01-21T14:48:33.085Z,2.20
2023-01-21T14:51:22.451Z,2.40
2023-01-21T14:53:52.320Z,2.10
2023-01-21T14:56:24.210Z,2.30
2023-01-21T14:58:54.661Z,2.30
2023-01-21T15:01:27.647Z,2.30
2023-01-21T15:03:57.814Z,2.10
2023-01-21T15:06:26.814Z,2.30
2023-01-21T15:08:58.401Z,2.30
2023-01-21T15:11:31.575Z,2.00
2023-01-21T15:14:07.378Z,2.20
2023-01-21T15:16:37.473Z,2.20
2023-01-21T15:19:32.007Z,2.10
2023-01-21T15:22:23.108Z,2.30
2023-01-21T15:25:20.811Z,2.20
2023-01-21T15:28:38.058Z,2.10
2023-01-21T15:31:09.144Z,2.10
2023-01-21T15:33:41.438Z,2.10
2023-01-21T15:36:21.303Z,1.90
2023-01-21T15:38:51.002Z,1.90
2023-01-21T15:41:28.117Z,2.00
2023-01-21T15:44:13.444Z,2.20
2023-01-21T15:46:51.583Z,2.00
2023-01-21T15:49:37.042Z,1.70
2023-01-21T15:52:18.685Z,2.00
2023-01-21T15:54:53.877Z,1.80
2023-01-21T15:57:38.237Z,1.80
2023-01-21T16:00:22.802Z,1.90
2023-01-21T16:02:56.092Z,1.80
2023-01-21T16:05:32.379Z,1.90
2023-01-21T16:08:07.060Z,1.70
2023-01-21T16:10:41.615Z,1.80
2023-01-21T16:13:16.833Z,1.90
2023-01-21T16:15:58.039Z,1.50
2023-01-21T16:18:32.614Z,1.80
2023-01-21T16:21:02.757Z,1.90
2023-01-21T16:23:35.559Z,1.80
2023-01-21T16:26:03.803Z,1.70
2023-01-21T16:28:43.120Z,1.50
2023-01-21T16:31:11.158Z,1.70
2023-01-21T16:33:39.000Z,1.60
2023-01-21T16:36:08.783Z,1.70
2023-01-21T16:38:38.643Z,1.60
2023-01-21T16:41:25.435Z,2.00
2023-01-21T16:43:56.359Z,1.60
2023-01-21T16:46:27.740Z,1.70
2023-01-21T16:48:58.262Z,1.70
2023-01-21T16:51:30.106Z,1.50
2023-01-21T16:54:22.009Z,1.70
2023-01-21T16:56:53.299Z,1.70
2023-01-21T16:59:21.795Z,1.60
2023-01-21T17:01:51.023Z,1.70
2023-01-21T17:04:18.806Z,1.60
2023-01-21T17:06:47.221Z,1.40
2023-01-21T17:09:27.786Z,1.70
2023-01-21T17:11:57.655Z,1.70
2023-01-21T17:14:29.141Z,1.50
2023-01-21T17:16:59.665Z,1.70
2023-01-21T17:19:33.791Z,1.50
2023-01-21T17:22:04.790Z,1.70
2023-01-21T17:24:39.440Z,1.50
2023-01-21T17:27:10.704Z,1.80
2023-01-21T17:29:40.324Z,1.80
2023-01-21T17:32:25.638Z,1.40
2023-01-21T17:35:10.816Z,1.70
2023-01-21T17:37:52.084Z,1.80
2023-01-21T17:40:32.546Z,1.80
2023-01-21T17:43:02.572Z,1.50
2023-01-21T17:45:34.844Z,1.50
2023-01-21T17:48:14.328Z,1.40
2023-01-21T17:50:47.511Z,1.70
2023-01-21T17:53:22.619Z,1.80
2023-01-21T17:56:00.528Z,1.50
2023-01-21T17:58:46.771Z,1.50
2023-01-21T18:01:15.666Z,1.50
2023-01-21T18:03:43.474Z,1.50
2023-01-21T18:06:18.274Z,1.50
2023-01-21T18:08:46.098Z,1.70
2023-01-21T18:11:17.165Z,1.60
2023-01-21T18:13:45.098Z,1.80
2023-01-21T18:16:13.032Z,1.60
2023-01-21T18:18:41.910Z,1.70
2023-01-21T18:21:18.208Z,1.60
2023-01-21T18:23:45.901Z,1.60
2023-01-21T18:26:21.028Z,1.70
2023-01-21T18:28:48.735Z,1.60
2023-01-21T18:31:16.552Z,1.70
2023-01-21T18:33:44.464Z,1.60
2023-01-21T18:36:12.705Z,1.60
2023-01-21T18:38:40.512Z,1.60
2023-01-21T18:41:11.020Z,1.70
2023-01-21T18:43:40.130Z,1.50
2023-01-21T18:46:12.465Z,1.60
2023-01-21T18:48:40.402Z,1.70
2023-01-21T18:51:08.990Z,1.40
2023-01-21T18:53:36.875Z,1.70
2023-01-21T18:56:06.665Z,1.40
2023-01-21T18:58:34.376Z,1.70
2023-01-21T19:01:13.904Z,1.50
2023-01-21T19:03:48.725Z,1.50
2023-01-21T19:06:17.359Z,1.50
2023-01-21T19:08:48.542Z,1.60
2023-01-21T19:11:16.674Z,1.70
2023-01-21T19:13:44.480Z,1.20
2023-01-21T19:16:17.302Z,1.20
2023-01-21T19:18:45.685Z,1.30
2023-01-21T19:21:13.486Z,1.50
2023-01-21T19:23:41.327Z,1.50
2023-01-21T19:26:13.586Z,1.50
2023-01-21T19:28:41.361Z,1.40
2023-01-21T19:31:09.189Z,1.60
2023-01-21T19:33:39.703Z,1.60
2023-01-21T19:36:15.005Z,1.60
2023-01-21T19:38:44.154Z,1.30
2023-01-21T19:41:12.043Z,1.40
2023-01-21T19:43:41.154Z,1.60
2023-01-21T19:46:11.794Z,1.40
2023-01-21T19:48:41.584Z,1.40
2023-01-21T19:51:09.640Z,1.50
2023-01-21T19:53:37.458Z,1.50
2023-01-21T19:56:06.655Z,1.40
2023-01-21T19:58:35.672Z,1.60
2023-01-21T20:01:03.549Z,1.80
2023-01-21T20:03:31.282Z,1.70
2023-01-21T20:06:02.999Z,1.70
2023-01-21T20:08:32.415Z,1.40
2023-01-21T20:11:00.293Z,1.40
2023-01-21T20:13:31.307Z,1.80
2023-01-21T20:16:03.642Z,1.70
2023-01-21T20:18:33.209Z,1.70
2023-01-21T20:21:02.427Z,1.50
2023-01-21T20:23:32.474Z,1.70
2023-01-21T20:26:00.953Z,1.60
2023-01-21T20:28:39.684Z,1.40
2023-01-21T20:31:08.601Z,1.40
2023-01-21T20:33:36.933Z,1.70
2023-01-21T20:36:08.552Z,1.50
2023-01-21T20:38:38.295Z,1.80
2023-01-21T20:41:07.211Z,1.80
2023-01-21T20:43:35.237Z,1.80
2023-01-21T20:46:06.306Z,1.80
2023-01-21T20:48:37.147Z,1.80
2023-01-21T20:51:07.252Z,1.50
2023-01-21T20:53:35.262Z,1.90
2023-01-21T20:56:14.932Z,1.50
2023-01-21T20:58:44.837Z,1.60
2023-01-21T21:01:13.274Z,1.80
2023-01-21T21:03:41.141Z,1.80
2023-01-21T21:06:14.722Z,1.90
2023-01-21T21:08:42.598Z,1.60
2023-01-21T21:11:11.244Z,1.90
2023-01-21T21:13:39.085Z,1.70
2023-01-21T21:16:19.663Z,1.70
2023-01-21T21:18:48.327Z,1.70
2023-01-21T21:21:19.399Z,1.50
2023-01-21T21:23:48.338Z,1.80
2023-01-21T21:26:18.799Z,1.60
2023-01-21T21:28:47.499Z,1.40
2023-01-21T21:31:17.590Z,1.70
2023-01-21T21:33:45.753Z,1.60
2023-01-21T21:36:15.621Z,1.70
2023-01-21T21:38:45.767Z,1.40
2023-01-21T21:41:35.077Z,1.40
2023-01-21T21:44:03.202Z,1.50
2023-01-21T21:46:48.693Z,1.60
2023-01-21T21:49:16.676Z,1.20
2023-01-21T21:51:45.818Z,1.30
2023-01-21T21:54:18.232Z,1.60
2023-01-21T21:56:46.251Z,1.40
2023-01-21T21:59:14.610Z,1.20
2023-01-21T22:01:43.803Z,1.70
2023-01-21T22:04:11.870Z,1.40
2023-01-21T22:06:39.953Z,1.30
2023-01-21T22:09:08.270Z,1.50
2023-01-21T22:11:37.462Z,1.60
2023-01-21T22:14:05.404Z,1.70
2023-01-21T22:16:33.531Z,1.50
2023-01-21T22:19:02.211Z,1.60
2023-01-21T22:21:32.956Z,1.40
2023-01-21T22:24:01.329Z,1.40
2023-01-21T22:26:29.795Z,1.70
2023-01-21T22:28:59.259Z,1.40
2023-01-21T22:31:28.882Z,1.40
2023-01-21T22:33:57.570Z,1.40
2023-01-21T22:36:27.208Z,1.70
2023-01-21T22:38:55.511Z,1.40
2023-01-21T22:41:24.516Z,1.30
2023-01-21T22:43:53.171Z,1.30
2023-01-21T22:46:23.890Z,1.60
2023-01-21T22:48:52.121Z,1.60
2023-01-21T22:51:21.218Z,1.40
2023-01-21T22:53:49.783Z,1.70
2023-01-21T22:56:19.545Z,1.40
2023-01-21T22:58:47.614Z,1.40
2023-01-21T23:01:24.669Z,1.40
2023-01-21T23:03:52.863Z,1.40
2023-01-21T23:06:21.031Z,1.40
2023-01-21T23:08:49.236Z,1.40
2023-01-21T23:11:19.081Z,1.30
2023-01-21T23:13:47.812Z,1.50
2023-01-21T23:16:18.303Z,1.60
2023-01-21T23:18:47.480Z,1.60
2023-01-21T23:21:17.847Z,1.60
2023-01-21T23:23:45.888Z,1.40
2023-01-21T23:26:14.985Z,1.70
2023-01-21T23:28:42.973Z,1.60
2023-01-21T23:31:13.740Z,1.30
2023-01-21T23:33:42.229Z,1.60
2023-01-21T23:36:13.371Z,1.30
2023-01-21T23:38:42.137Z,1.30
2023-01-21T23:41:12.061Z,1.50
2023-01-21T23:43:39.919Z,1.50
2023-01-21T23:46:08.449Z,1.60
2023-01-21T23:48:36.256Z,1.70
2023-01-21T23:51:04.782Z,1.70
2023-01-21T23:53:34.565Z,1.60
2023-01-21T23:56:07.114Z,1.50
2023-01-21T23:58:35.023Z,1.70
